Airport View

Enter AWOS ICAO identifier for current METAR.

ex. KFNL

KAWG 080355Z AUTO 16005KT 8SM CLR 25/25 A2992 RMK AO2

8 Jul 2020 03:58

Frequency: 127.825

Phone: 319-653-4149

Other Area AWOS: KFFL - KMPZ - KIOW - KMUT

TAF KOTM 072335Z 0800/0824 20004KT P6SM SCT060 FM081600 19007KT P6SM SCT050